Time;durP1;ratioP1;P1;durP2;ratioP2;P2;SDS_P1;SDS_P2;PMS_P1;PMS_P2;Temp;Humidity;BMP_temperature;BMP_pressure;BME280_temperature;BME280_humidity;BME280_pressure;Samples;Min_cycle;Max_cycle;Signal;HPM_P1;HPM_P2
2024/03/03 00:02:09;;;;;;;1.95;0.10;;;11.10;99.90;;;;;;5037298;28;20048;-80
2024/03/03 00:04:35;;;;;;;1.02;0.10;;;11.10;99.90;;;;;;5037291;28;20017;-81
2024/03/03 00:07:01;;;;;;;0.88;0.20;;;11.10;99.90;;;;;;5036948;28;20370;-80
2024/03/03 00:09:26;;;;;;;3.88;0.30;;;11.00;99.90;;;;;;5037089;28;20525;-80
2024/03/03 00:11:52;;;;;;;2.85;0.47;;;11.10;99.90;;;;;;5038480;28;20026;-80
2024/03/03 00:14:18;;;;;;;2.63;0.85;;;11.10;99.90;;;;;;5037702;28;20071;-80
2024/03/03 00:16:43;;;;;;;1.48;0.20;;;11.10;99.90;;;;;;5038714;28;20030;-78
2024/03/03 00:19:09;;;;;;;0.50;0.10;;;11.10;99.90;;;;;;5037640;28;20040;-80
2024/03/03 00:21:35;;;;;;;1.33;0.10;;;11.10;99.90;;;;;;5038466;28;20025;-80
2024/03/03 00:24:02;;;;;;;3.30;0.20;;;11.00;99.90;;;;;;5039175;28;20043;-80
2024/03/03 00:26:28;;;;;;;2.45;0.30;;;11.10;99.90;;;;;;5039389;28;20032;-80
2024/03/03 00:28:54;;;;;;;0.40;0.10;;;11.00;99.90;;;;;;5038975;28;20021;-80
2024/03/03 00:31:19;;;;;;;1.50;0.10;;;11.00;99.90;;;;;;5038115;28;20018;-80
2024/03/03 00:33:46;;;;;;;0.98;0.17;;;11.10;99.90;;;;;;5037993;28;20032;-80
2024/03/03 00:36:12;;;;;;;3.08;0.30;;;11.10;99.90;;;;;;5037300;28;20508;-80
2024/03/03 00:38:37;;;;;;;1.10;0.38;;;11.10;99.90;;;;;;5036319;28;20018;-80
2024/03/03 00:41:06;;;;;;;1.23;0.17;;;11.20;99.90;;;;;;5038606;28;20102;-80
2024/03/03 00:43:33;;;;;;;1.45;0.45;;;11.10;99.90;;;;;;5037362;28;20085;-80
2024/03/03 00:45:58;;;;;;;0.95;0.30;;;11.10;99.90;;;;;;5037380;28;20029;-80
2024/03/03 00:48:24;;;;;;;2.17;0.20;;;11.10;99.90;;;;;;5038929;28;20036;-80
2024/03/03 00:50:50;;;;;;;1.83;0.43;;;11.00;99.90;;;;;;5037879;28;20025;-80
2024/03/03 00:53:16;;;;;;;1.40;0.15;;;11.10;99.90;;;;;;5038899;28;20025;-80
2024/03/03 00:55:46;;;;;;;0.50;0.00;;;11.10;99.90;;;;;;5037982;28;20053;-80
2024/03/03 00:58:13;;;;;;;1.10;0.45;;;;;;;;;;5036674;28;20025;-80
2024/03/03 01:00:39;;;;;;;2.20;0.25;;;11.00;99.90;;;;;;5038362;28;20473;-80
2024/03/03 01:03:05;;;;;;;1.98;0.43;;;11.00;99.90;;;;;;5037515;28;20018;-80
2024/03/03 01:05:31;;;;;;;1.63;0.22;;;10.90;99.90;;;;;;5039037;28;20489;-80
2024/03/03 01:07:57;;;;;;;2.45;0.20;;;10.90;99.90;;;;;;5037546;28;20032;-80
2024/03/03 01:10:23;;;;;;;1.63;0.22;;;10.90;99.90;;;;;;5035835;28;20503;-80
2024/03/03 01:12:48;;;;;;;1.33;0.20;;;10.80;99.90;;;;;;5035756;28;20485;-79
2024/03/03 01:15:14;;;;;;;1.20;0.35;;;10.90;99.90;;;;;;5036884;28;20025;-79
2024/03/03 01:17:40;;;;;;;1.35;0.38;;;10.80;99.90;;;;;;5036126;28;20025;-78
2024/03/03 01:20:06;;;;;;;1.05;0.35;;;10.80;99.90;;;;;;5035618;28;20017;-79
2024/03/03 01:22:32;;;;;;;0.60;0.10;;;10.90;99.90;;;;;;5035121;28;20017;-79
2024/03/03 01:24:58;;;;;;;1.05;0.20;;;11.00;99.90;;;;;;5034991;28;20025;-79
2024/03/03 01:27:25;;;;;;;4.55;0.25;;;11.00;99.90;;;;;;5034481;28;20409;-79
2024/03/03 01:29:50;;;;;;;1.13;0.35;;;11.00;99.90;;;;;;5034847;28;20032;-79
2024/03/03 01:32:16;;;;;;;0.85;0.10;;;11.10;99.90;;;;;;5035810;28;20021;-78
2024/03/03 01:34:42;;;;;;;2.25;0.20;;;11.10;99.90;;;;;;5035878;28;20021;-78
2024/03/03 01:37:08;;;;;;;0.82;0.20;;;11.20;99.90;;;;;;5034232;28;20473;-78
2024/03/03 01:39:36;;;;;;;2.38;0.20;;;11.10;99.90;;;;;;5035767;28;20096;-79
2024/03/03 01:42:02;;;;;;;0.65;0.22;;;11.20;99.90;;;;;;5035153;28;20024;-79
2024/03/03 01:44:27;;;;;;;1.40;0.22;;;11.20;99.90;;;;;;5036854;28;20446;-79
2024/03/03 01:46:55;;;;;;;1.83;0.17;;;11.20;99.90;;;;;;5039418;28;20017;-79
2024/03/03 01:49:21;;;;;;;0.35;0.10;;;11.20;99.90;;;;;;5039770;28;20026;-79
2024/03/03 01:51:48;;;;;;;0.70;0.10;;;11.20;99.90;;;;;;5040250;28;20022;-79
2024/03/03 01:54:14;;;;;;;0.60;0.30;;;11.20;99.90;;;;;;5039353;28;20472;-79
2024/03/03 01:56:43;;;;;;;0.60;0.30;;;11.20;99.90;;;;;;5038477;28;20492;-78
2024/03/03 01:59:09;;;;;;;1.55;0.30;;;11.20;99.90;;;;;;5038248;28;20458;-79
2024/03/03 02:01:37;;;;;;;1.15;0.13;;;11.20;99.90;;;;;;5037931;28;20063;-79
2024/03/03 02:04:02;;;;;;;0.85;0.10;;;11.20;99.90;;;;;;5038066;28;20052;-79
2024/03/03 02:06:31;;;;;;;0.90;0.20;;;11.20;99.90;;;;;;5036935;28;20021;-78
2024/03/03 02:08:58;;;;;;;1.38;0.20;;;11.10;99.90;;;;;;5038594;28;20018;-79
2024/03/03 02:11:23;;;;;;;1.13;0.28;;;11.20;99.90;;;;;;5037628;28;20033;-79
2024/03/03 02:13:49;;;;;;;1.05;0.22;;;11.20;99.90;;;;;;5037742;28;20070;-78
2024/03/03 02:16:15;;;;;;;3.85;0.70;;;11.10;99.90;;;;;;5038409;28;20060;-79
2024/03/03 02:18:41;;;;;;;1.80;0.68;;;11.10;99.90;;;;;;5038001;28;20081;-78
2024/03/03 02:21:06;;;;;;;2.17;0.30;;;11.10;99.90;;;;;;5038807;28;20036;-79
2024/03/03 02:23:32;;;;;;;1.92;0.38;;;11.10;99.90;;;;;;5037415;28;20125;-79
2024/03/03 02:25:57;;;;;;;1.33;0.30;;;11.10;99.90;;;;;;5036927;28;20160;-78
2024/03/03 02:28:25;;;;;;;2.00;0.40;;;10.90;99.90;;;;;;5037147;28;20032;-79
2024/03/03 02:30:51;;;;;;;1.13;0.30;;;10.90;99.90;;;;;;5036637;28;20032;-79
2024/03/03 02:33:16;;;;;;;1.85;0.30;;;10.90;99.90;;;;;;5037208;28;20022;-79
2024/03/03 02:35:42;;;;;;;1.50;0.57;;;10.80;99.90;;;;;;5038569;28;20021;-79
2024/03/03 02:38:08;;;;;;;1.95;0.32;;;10.70;99.90;;;;;;5037040;28;20025;-79
2024/03/03 02:40:33;;;;;;;2.70;0.35;;;10.60;99.90;;;;;;5036725;28;20049;-79
2024/03/03 02:43:00;;;;;;;1.52;0.50;;;10.50;99.90;;;;;;5038336;28;20480;-79
2024/03/03 02:45:27;;;;;;;0.93;0.40;;;10.50;99.90;;;;;;5036827;28;20024;-79
2024/03/03 02:47:54;;;;;;;2.63;0.70;;;10.40;99.90;;;;;;5036896;28;20075;-79
2024/03/03 02:50:20;;;;;;;2.70;0.40;;;10.40;99.90;;;;;;5036770;28;20025;-78
2024/03/03 02:52:46;;;;;;;2.45;0.43;;;10.40;99.90;;;;;;5036639;28;20022;-78
2024/03/03 02:55:12;;;;;;;1.25;0.30;;;10.40;99.90;;;;;;5036435;28;20018;-79
2024/03/03 02:57:37;;;;;;;1.40;0.55;;;10.40;99.90;;;;;;5037286;28;20028;-78
2024/03/03 03:00:04;;;;;;;1.27;0.50;;;10.40;99.90;;;;;;5036614;28;20427;-78
2024/03/03 03:02:30;;;;;;;3.30;0.68;;;10.40;99.90;;;;;;5036666;28;20034;-78
2024/03/03 03:04:56;;;;;;;0.90;0.22;;;10.40;99.90;;;;;;5036516;28;20032;-78
2024/03/03 03:07:22;;;;;;;3.72;0.77;;;10.30;99.90;;;;;;5037405;28;20079;-78
2024/03/03 03:09:48;;;;;;;1.05;0.30;;;10.30;99.90;;;;;;5037365;28;20033;-79
2024/03/03 03:12:14;;;;;;;0.63;0.28;;;10.30;99.90;;;;;;5036328;28;20033;-78
2024/03/03 03:14:39;;;;;;;1.02;0.20;;;10.30;99.90;;;;;;5035802;28;20096;-78
2024/03/03 03:17:05;;;;;;;1.33;0.47;;;10.30;99.90;;;;;;5035984;28;20032;-79
2024/03/03 03:19:32;;;;;;;2.33;0.47;;;10.20;99.90;;;;;;5036182;28;20108;-78
2024/03/03 03:22:00;;;;;;;10.88;0.52;;;10.20;99.90;;;;;;5036920;28;20511;-78
2024/03/03 03:24:32;;;;;;;2.28;0.47;;;10.20;99.90;;;;;;5037691;28;20033;-80
2024/03/03 03:26:58;;;;;;;2.95;0.45;;;10.10;99.90;;;;;;5039559;28;20030;-79
2024/03/03 03:29:24;;;;;;;1.02;0.50;;;10.10;99.90;;;;;;5040893;28;20030;-80
2024/03/03 03:31:49;;;;;;;2.45;0.85;;;10.10;99.90;;;;;;5039549;28;20021;-80
2024/03/03 03:34:15;;;;;;;2.60;0.52;;;10.10;99.90;;;;;;5038603;28;20025;-78
2024/03/03 03:36:40;;;;;;;1.42;0.47;;;10.10;99.90;;;;;;5036244;28;20125;-78
2024/03/03 03:39:12;;;;;;;4.80;0.80;;;10.00;99.90;;;;;;5035850;28;20075;-78
2024/03/03 03:41:48;;;;;;;2.80;0.60;;;10.00;99.90;;;;;;5036291;28;20092;-77
2024/03/03 03:44:14;;;;;;;4.90;1.00;;;10.00;99.90;;;;;;5034477;28;20029;-78
2024/03/03 03:46:40;;;;;;;5.07;0.93;;;10.00;99.90;;;;;;5034419;28;20026;-78
2024/03/03 03:49:14;;;;;;;3.28;0.65;;;10.00;99.90;;;;;;5034515;28;20021;-78
2024/03/03 03:51:40;;;;;;;1.85;0.63;;;10.00;99.90;;;;;;5034299;28;20038;-78
2024/03/03 03:54:06;;;;;;;0.93;0.40;;;9.90;99.90;;;;;;5034502;28;20017;-78
2024/03/03 03:56:33;;;;;;;2.15;0.73;;;9.90;99.90;;;;;;5034497;28;20120;-78
2024/03/03 03:58:59;;;;;;;1.25;0.47;;;9.90;99.90;;;;;;5034031;28;20151;-78
2024/03/03 04:01:27;;;;;;;3.42;0.68;;;10.00;99.90;;;;;;5035080;28;20116;-78
2024/03/03 04:03:57;;;;;;;1.90;0.50;;;9.90;99.90;;;;;;5035988;28;20045;-78
2024/03/03 04:06:27;;;;;;;3.05;0.80;;;9.80;99.90;;;;;;5035252;28;20025;-78
2024/03/03 04:08:54;;;;;;;2.70;0.90;;;9.80;99.90;;;;;;5033702;28;20037;-78
2024/03/03 04:11:20;;;;;;;4.32;1.15;;;9.70;99.90;;;;;;5035131;28;20139;-78
2024/03/03 04:13:50;;;;;;;1.38;0.65;;;9.70;99.90;;;;;;5035181;28;20481;-78
2024/03/03 04:16:17;;;;;;;1.42;0.55;;;9.70;99.90;;;;;;5034978;28;20105;-78
2024/03/03 04:18:44;;;;;;;1.98;0.80;;;9.70;99.90;;;;;;5035374;28;20099;-78
2024/03/03 04:21:09;;;;;;;3.58;0.55;;;9.70;99.90;;;;;;5034956;28;20079;-78
2024/03/03 04:23:37;;;;;;;4.82;1.25;;;10.30;99.90;;;;;;5035462;28;20469;-78
2024/03/03 04:26:06;;;;;;;2.03;0.60;;;9.60;99.90;;;;;;5033643;28;20052;-78
2024/03/03 04:28:33;;;;;;;2.55;0.68;;;9.60;99.90;;;;;;5034540;28;20389;-78
2024/03/03 04:30:58;;;;;;;2.03;0.73;;;9.60;99.90;;;;;;5035531;28;20031;-78
2024/03/03 04:33:24;;;;;;;4.85;0.88;;;9.60;99.90;;;;;;5034171;28;20057;-78
2024/03/03 04:35:50;;;;;;;2.22;1.15;;;9.50;99.90;;;;;;5035669;28;20018;-78
2024/03/03 04:38:15;;;;;;;2.05;0.77;;;9.40;99.90;;;;;;5034676;28;20087;-78
2024/03/03 04:40:43;;;;;;;4.25;1.30;;;9.40;99.90;;;;;;5035182;28;20025;-78
2024/03/03 04:43:10;;;;;;;3.25;1.05;;;9.40;99.90;;;;;;5034547;28;20083;-78
2024/03/03 04:45:35;;;;;;;2.90;0.77;;;10.10;99.90;;;;;;5035001;28;20025;-78
2024/03/03 04:48:01;;;;;;;4.97;1.40;;;9.30;99.90;;;;;;5034169;28;20030;-78
2024/03/03 04:50:28;;;;;;;7.20;2.10;;;9.30;99.90;;;;;;5033689;28;20025;-78
2024/03/03 04:52:53;;;;;;;3.92;1.05;;;9.20;99.90;;;;;;5034181;28;20028;-78
2024/03/03 04:55:19;;;;;;;2.60;0.73;;;9.20;99.90;;;;;;5035836;28;20017;-78
2024/03/03 04:57:44;;;;;;;3.40;1.00;;;9.20;99.90;;;;;;5033991;28;20013;-79
2024/03/03 05:00:10;;;;;;;1.92;1.10;;;9.20;99.90;;;;;;5034880;28;20030;-78
2024/03/03 05:02:36;;;;;;;2.95;0.95;;;9.10;99.90;;;;;;5035103;28;20033;-78
2024/03/03 05:05:03;;;;;;;2.60;1.20;;;9.10;99.90;;;;;;5034137;28;20037;-78
2024/03/03 05:07:29;;;;;;;6.60;1.30;;;9.10;99.90;;;;;;5035394;28;20112;-78
2024/03/03 05:09:55;;;;;;;5.35;1.42;;;9.10;99.90;;;;;;5035251;28;20041;-78
2024/03/03 05:12:21;;;;;;;6.40;2.00;;;9.10;99.90;;;;;;5034947;28;20017;-78
2024/03/03 05:14:46;;;;;;;1.95;1.13;;;9.10;99.90;;;;;;5034708;28;20045;-78
2024/03/03 05:17:12;;;;;;;2.65;0.95;;;9.10;99.90;;;;;;5034103;28;20478;-79
2024/03/03 05:19:38;;;;;;;3.17;1.20;;;9.10;99.90;;;;;;5034119;28;20388;-78
2024/03/03 05:22:04;;;;;;;4.13;1.60;;;9.10;99.90;;;;;;5033568;28;20013;-78
2024/03/03 05:24:29;;;;;;;3.15;1.35;;;9.10;99.90;;;;;;5035136;28;20032;-78
2024/03/03 05:26:55;;;;;;;4.35;1.17;;;9.20;99.90;;;;;;5034479;28;20013;-78
2024/03/03 05:29:21;;;;;;;4.28;2.00;;;9.20;99.90;;;;;;5033437;28;20021;-78
2024/03/03 05:31:46;;;;;;;4.20;1.60;;;9.20;99.90;;;;;;5034743;28;20088;-78
2024/03/03 05:34:12;;;;;;;3.55;1.15;;;9.20;99.90;;;;;;5033815;28;20020;-78
2024/03/03 05:36:41;;;;;;;5.38;1.55;;;9.20;99.90;;;;;;5035939;28;20030;-78
2024/03/03 05:39:08;;;;;;;3.58;1.42;;;9.20;99.90;;;;;;5035538;28;20025;-78
2024/03/03 05:41:34;;;;;;;4.22;1.58;;;9.20;99.90;;;;;;5033747;28;20026;-78
2024/03/03 05:44:00;;;;;;;5.88;1.65;;;9.60;99.90;;;;;;5034128;28;20522;-78
2024/03/03 05:46:25;;;;;;;3.60;1.33;;;9.10;99.90;;;;;;5034019;28;20032;-78
2024/03/03 05:48:51;;;;;;;6.30;1.70;;;9.10;99.90;;;;;;5035067;28;20508;-78
2024/03/03 05:51:17;;;;;;;2.58;1.30;;;9.00;99.90;;;;;;5033506;28;20033;-78
2024/03/03 05:53:43;;;;;;;10.20;1.70;;;9.00;99.90;;;;;;5034618;28;20029;-78
2024/03/03 05:56:12;;;;;;;2.92;1.20;;;8.90;99.90;;;;;;5033612;28;20021;-78
2024/03/03 05:58:38;;;;;;;2.70;1.17;;;8.90;99.90;;;;;;5035080;28;20025;-82
2024/03/03 06:01:04;;;;;;;5.72;1.85;;;8.90;99.90;;;;;;5038894;28;20036;-83
2024/03/03 06:03:29;;;;;;;6.97;1.80;;;8.80;99.90;;;;;;5041112;28;20029;-82
2024/03/03 06:05:55;;;;;;;3.72;1.85;;;8.80;99.90;;;;;;5041180;28;20040;-83
2024/03/03 06:08:21;;;;;;;2.78;1.25;;;8.80;99.90;;;;;;5040783;28;20366;-83
2024/03/03 06:10:46;;;;;;;4.50;1.65;;;8.80;99.90;;;;;;5039804;28;20128;-83
2024/03/03 06:13:12;;;;;;;3.88;1.48;;;8.80;99.90;;;;;;5040304;28;20017;-82
2024/03/03 06:15:38;;;;;;;4.20;2.25;;;8.90;99.90;;;;;;5039639;28;20031;-83
2024/03/03 06:18:04;;;;;;;3.60;1.23;;;8.80;99.90;;;;;;5038482;28;20021;-83
2024/03/03 06:20:31;;;;;;;3.67;1.30;;;8.80;99.90;;;;;;5038979;28;20025;-83
2024/03/03 06:22:57;;;;;;;4.45;1.67;;;8.80;99.90;;;;;;5039391;28;20081;-83
2024/03/03 06:25:23;;;;;;;11.13;2.70;;;8.80;99.90;;;;;;5037894;28;20021;-83
2024/03/03 06:27:48;;;;;;;3.53;1.85;;;8.70;99.90;;;;;;5038977;28;20034;-82
2024/03/03 06:30:14;;;;;;;5.18;1.90;;;9.20;99.90;;;;;;5038801;28;20029;-82
2024/03/03 06:32:40;;;;;;;4.63;2.08;;;8.70;99.90;;;;;;5043510;28;20037;-82
2024/03/03 06:35:10;;;;;;;4.65;2.08;;;8.70;99.90;;;;;;5043444;28;20080;-83
2024/03/03 06:37:38;;;;;;;6.20;1.95;;;8.70;99.90;;;;;;5043257;28;20021;-82
2024/03/03 06:40:05;;;;;;;3.85;1.60;;;8.70;99.90;;;;;;5043764;28;20026;-83
2024/03/03 06:42:33;;;;;;;4.95;1.92;;;8.80;99.90;;;;;;5042658;28;20021;-83
2024/03/03 06:45:00;;;;;;;4.03;1.93;;;8.90;99.90;;;;;;5043396;28;20366;-83
2024/03/03 06:47:28;;;;;;;5.55;2.58;;;8.90;99.90;;;;;;5041764;28;20083;-82
2024/03/03 06:49:57;;;;;;;4.60;1.60;;;9.00;99.90;;;;;;5042261;28;20034;-82
2024/03/03 06:52:22;;;;;;;5.20;2.45;;;9.00;99.90;;;;;;5044604;28;20025;-83
2024/03/03 06:54:48;;;;;;;6.43;2.22;;;9.00;99.90;;;;;;5042768;28;20489;-83
2024/03/03 06:57:14;;;;;;;5.40;2.25;;;9.30;99.90;;;;;;5043086;28;20024;-83
2024/03/03 06:59:40;;;;;;;3.90;1.83;;;9.10;99.90;;;;;;5041790;28;20029;-83
2024/03/03 07:02:06;;;;;;;6.97;2.53;;;9.10;99.90;;;;;;5041255;28;20029;-82
2024/03/03 07:04:32;;;;;;;3.58;1.60;;;9.10;99.90;;;;;;5041839;28;20032;-83
2024/03/03 07:06:58;;;;;;;6.50;1.92;;;9.10;99.90;;;;;;5041597;28;20025;-82
2024/03/03 07:09:23;;;;;;;6.50;1.80;;;9.10;99.90;;;;;;5041810;28;20052;-82
2024/03/03 07:11:51;;;;;;;5.78;2.17;;;9.10;99.90;;;;;;5036457;28;20548;-78
2024/03/03 07:14:17;;;;;;;6.93;2.35;;;9.10;99.90;;;;;;5037119;28;20018;-78
2024/03/03 07:16:43;;;;;;;7.32;2.00;;;9.20;99.90;;;;;;5035533;28;20070;-78
2024/03/03 07:19:08;;;;;;;3.95;1.70;;;9.20;99.90;;;;;;5036238;28;20021;-78
2024/03/03 07:21:34;;;;;;;6.18;1.83;;;10.40;99.90;;;;;;5036474;28;20523;-78
2024/03/03 07:24:00;;;;;;;4.78;2.40;;;9.20;99.90;;;;;;5037087;28;20080;-78
2024/03/03 07:26:26;;;;;;;5.13;1.60;;;10.00;99.90;;;;;;5035941;28;20102;-78
2024/03/03 07:28:52;;;;;;;4.57;2.35;;;9.30;99.90;;;;;;5036292;28;20400;-78
2024/03/03 07:31:18;;;;;;;6.75;2.42;;;9.40;99.90;;;;;;5037400;28;20036;-78
2024/03/03 07:33:43;;;;;;;6.50;2.50;;;9.40;99.90;;;;;;5037234;28;20025;-78
2024/03/03 07:36:09;;;;;;;6.47;2.55;;;9.50;99.90;;;;;;5036755;28;20060;-78
2024/03/03 07:38:36;;;;;;;5.13;1.90;;;9.60;99.90;;;;;;5036838;28;20473;-78
2024/03/03 07:41:02;;;;;;;7.70;2.78;;;9.60;99.90;;;;;;5035634;28;20033;-78
2024/03/03 07:43:28;;;;;;;9.60;2.65;;;9.80;99.90;;;;;;5034636;28;20093;-78
2024/03/03 07:45:53;;;;;;;5.10;2.42;;;9.90;99.90;;;;;;5035782;28;20108;-78
2024/03/03 07:48:19;;;;;;;5.93;2.22;;;10.00;99.90;;;;;;5035152;28;20047;-78
2024/03/03 07:50:45;;;;;;;7.53;2.83;;;10.10;99.90;;;;;;5035254;28;20021;-78
2024/03/03 07:53:11;;;;;;;5.68;2.42;;;10.20;99.90;;;;;;5035671;28;20120;-78
2024/03/03 07:55:37;;;;;;;5.82;2.00;;;10.30;99.90;;;;;;5037176;28;20025;-78
2024/03/03 07:58:03;;;;;;;5.85;1.95;;;10.40;99.90;;;;;;5036269;28;20105;-78
2024/03/03 08:00:33;;;;;;;6.22;2.60;;;10.50;99.90;;;;;;5036316;28;20571;-78
2024/03/03 08:03:07;;;;;;;4.68;2.13;;;10.50;99.90;;;;;;5036255;28;20034;-78
2024/03/03 08:05:34;;;;;;;5.90;2.50;;;10.60;99.90;;;;;;5034937;28;20489;-78
2024/03/03 08:08:00;;;;;;;6.00;1.90;;;10.70;99.90;;;;;;5036268;28;20162;-78
2024/03/03 08:10:26;;;;;;;7.90;2.95;;;10.60;99.90;;;;;;5035765;28;20123;-78
2024/03/03 08:12:53;;;;;;;5.47;2.13;;;10.90;99.90;;;;;;5035677;28;20028;-78
2024/03/03 08:15:19;;;;;;;3.35;1.75;;;11.00;99.90;;;;;;5035665;28;20100;-78
2024/03/03 08:17:45;;;;;;;6.32;2.08;;;11.10;99.90;;;;;;5036194;28;20025;-80
2024/03/03 08:20:12;;;;;;;4.60;1.75;;;11.20;99.90;;;;;;5036941;28;20444;-80
2024/03/03 08:22:38;;;;;;;6.53;2.72;;;11.40;99.90;;;;;;5036318;28;20029;-80
2024/03/03 08:25:05;;;;;;;6.68;2.45;;;11.50;99.90;;;;;;5037446;28;20025;-79
2024/03/03 08:27:31;;;;;;;6.53;1.88;;;11.70;99.90;;;;;;5036591;28;20026;-79
2024/03/03 08:29:57;;;;;;;6.07;1.55;;;11.70;99.90;;;;;;5037052;28;20485;-80
2024/03/03 08:32:26;;;;;;;4.82;1.90;;;11.70;99.90;;;;;;5037549;28;20028;-81
2024/03/03 08:34:51;;;;;;;5.10;1.60;;;11.90;99.90;;;;;;5041091;28;20080;-80
2024/03/03 08:37:17;;;;;;;4.97;1.25;;;11.90;99.90;;;;;;5040469;28;20017;-80
2024/03/03 08:39:42;;;;;;;2.83;0.98;;;11.90;99.90;;;;;;5039919;28;20092;-79
2024/03/03 08:42:08;;;;;;;4.28;1.35;;;12.00;99.90;;;;;;5038990;28;20068;-81
2024/03/03 08:44:34;;;;;;;3.00;1.40;;;12.00;99.90;;;;;;5035579;28;20033;-77
2024/03/03 08:46:59;;;;;;;4.38;1.27;;;12.10;99.90;;;;;;5036921;28;20116;-81
2024/03/03 08:49:25;;;;;;;4.38;1.08;;;;;;;;;;5039939;28;20021;-80
2024/03/03 08:51:51;;;;;;;3.13;1.33;;;12.10;99.90;;;;;;5037355;28;20030;-78
2024/03/03 08:54:17;;;;;;;5.15;1.92;;;12.20;99.90;;;;;;5041661;28;20033;-77
2024/03/03 08:56:44;;;;;;;3.38;1.33;;;12.20;99.90;;;;;;5034950;28;20108;-76
2024/03/03 08:59:10;;;;;;;4.22;1.30;;;12.20;99.90;;;;;;5033148;28;20393;-76
2024/03/03 09:01:39;;;;;;;2.50;1.20;;;12.10;99.90;;;;;;5032677;28;20060;-78
2024/03/03 09:04:04;;;;;;;3.28;1.20;;;12.10;99.90;;;;;;5035280;28;20021;-78
2024/03/03 09:06:30;;;;;;;5.28;1.65;;;12.10;99.90;;;;;;5035389;28;20499;-79
2024/03/03 09:08:56;;;;;;;4.05;1.40;;;12.20;99.90;;;;;;5033681;28;20028;-78
2024/03/03 09:11:22;;;;;;;4.47;1.27;;;12.30;99.90;;;;;;5033870;28;20017;-80
2024/03/03 09:13:47;;;;;;;4.38;1.52;;;12.40;99.90;;;;;;5037240;28;20086;-79
2024/03/03 09:16:13;;;;;;;4.93;1.50;;;12.40;99.90;;;;;;5034939;28;20067;-79
2024/03/03 09:18:39;;;;;;;3.65;1.10;;;12.40;99.90;;;;;;5034988;28;20110;-78
2024/03/03 09:21:08;;;;;;;3.58;0.75;;;12.50;99.90;;;;;;5034289;28;20018;-79
2024/03/03 09:23:35;;;;;;;2.35;1.00;;;12.60;99.90;;;;;;5034125;28;20501;-78
2024/03/03 09:26:01;;;;;;;5.82;1.23;;;;;;;;;;5035564;28;20029;-79
2024/03/03 09:28:27;;;;;;;5.65;1.73;;;12.70;99.90;;;;;;5035344;28;20635;-78
2024/03/03 09:30:54;;;;;;;4.93;0.88;;;12.90;99.90;;;;;;5035178;28;20030;-78
2024/03/03 09:33:20;;;;;;;5.18;0.98;;;12.90;99.90;;;;;;5034446;28;20021;-78
2024/03/03 09:35:46;;;;;;;3.85;0.95;;;13.10;99.90;;;;;;5034593;28;20025;-78
2024/03/03 09:38:12;;;;;;;3.63;0.98;;;13.20;99.90;;;;;;5034573;28;20220;-78
2024/03/03 09:40:38;;;;;;;3.53;1.30;;;;;;;;;;5035307;28;20047;-78
2024/03/03 09:43:06;;;;;;;4.38;1.05;;;13.40;99.90;;;;;;5035248;28;20123;-78
2024/03/03 09:45:32;;;;;;;4.75;1.33;;;13.50;99.90;;;;;;5034569;28;20022;-78
2024/03/03 09:48:02;;;;;;;4.30;0.50;;;13.50;99.90;;;;;;5036736;28;20036;-78
2024/03/03 09:50:29;;;;;;;2.40;0.80;;;13.80;99.90;;;;;;5036208;28;20045;-78
2024/03/03 09:52:58;;;;;;;4.63;1.50;;;13.90;99.90;;;;;;5035083;28;20014;-78
2024/03/03 09:55:28;;;;;;;;;;;13.90;99.90;;;;;;5035983;28;20017;-78
2024/03/03 09:57:53;;;;;;;2.97;0.75;;;14.20;99.90;;;;;;5035614;28;19932;-78
2024/03/03 10:00:19;;;;;;;1.48;0.40;;;14.30;99.90;;;;;;5035885;28;20029;-78
2024/03/03 10:02:46;;;;;;;1.80;0.60;;;14.40;99.90;;;;;;5035705;28;20061;-79
2024/03/03 10:05:15;;;;;;;2.75;0.63;;;14.50;99.90;;;;;;5034188;28;20022;-78
2024/03/03 10:07:47;;;;;;;3.67;0.90;;;14.70;99.90;;;;;;5038784;28;20025;-78
2024/03/03 10:10:17;;;;;;;6.55;0.60;;;14.70;99.90;;;;;;5039890;28;20029;-78
2024/03/03 10:12:46;;;;;;;1.98;0.52;;;14.70;99.90;;;;;;5038916;28;20013;-78
2024/03/03 10:15:12;;;;;;;1.75;0.47;;;14.60;99.90;;;;;;5039002;28;20030;-79
2024/03/03 10:17:38;;;;;;;3.28;0.50;;;;;;;;;;5037405;28;20013;-78
2024/03/03 10:20:08;;;;;;;3.85;0.35;;;14.80;99.90;;;;;;5039148;28;20064;-78
2024/03/03 10:22:35;;;;;;;3.40;0.40;;;14.80;99.90;;;;;;5039541;28;20430;-79
2024/03/03 10:25:11;;;;;;;1.95;0.55;;;14.80;99.90;;;;;;5041238;28;20021;-79
2024/03/03 10:27:44;;;;;;;2.00;0.52;;;14.80;99.90;;;;;;5039904;28;20424;-79
2024/03/03 10:30:12;;;;;;;7.30;0.65;;;14.70;99.90;;;;;;5040806;28;20505;-80
2024/03/03 10:32:39;;;;;;;1.98;0.32;;;14.70;99.90;;;;;;5041934;28;20054;-78
2024/03/03 10:35:11;;;;;;;2.47;0.30;;;14.60;99.90;;;;;;5039738;28;20014;-80
2024/03/03 10:38:01;;;;;;;1.80;0.28;;;14.50;99.90;;;;;;5039835;28;20469;-78
2024/03/03 10:40:28;;;;;;;0.75;0.20;;;14.50;99.90;;;;;;5041995;28;20017;-80
2024/03/03 10:42:54;;;;;;;2.00;0.32;;;14.50;99.90;;;;;;5040099;28;20030;-79
2024/03/03 10:45:20;;;;;;;2.45;0.65;;;14.50;99.90;;;;;;5038768;28;20028;-78
2024/03/03 10:47:49;;;;;;;1.50;0.52;;;14.50;99.90;;;;;;5038431;28;20053;-78
2024/03/03 10:50:22;;;;;;;3.13;0.40;;;14.50;99.90;;;;;;5037295;28;20079;-77
2024/03/03 10:52:52;;;;;;;3.45;0.68;;;14.70;99.90;;;;;;5038078;28;20026;-75
2024/03/03 10:55:18;;;;;;;4.88;0.52;;;14.90;99.90;;;;;;5037779;28;20101;-78
2024/03/03 10:57:45;;;;;;;3.42;0.77;;;15.10;99.90;;;;;;5037694;28;20551;-76
2024/03/03 11:00:22;;;;;;;3.25;0.50;;;15.10;99.90;;;;;;5037862;28;20030;-78
2024/03/03 11:02:50;;;;;;;1.65;0.10;;;15.20;99.90;;;;;;5038641;28;20038;-78
2024/03/03 11:05:16;;;;;;;1.38;0.15;;;15.20;99.90;;;;;;5040509;28;20018;-79
2024/03/03 11:07:44;;;;;;;2.05;0.03;;;15.20;99.90;;;;;;5041661;28;20094;-79
2024/03/03 11:10:10;;;;;;;0.70;0.00;;;15.20;99.90;;;;;;5038236;28;20022;-77
2024/03/03 11:12:36;;;;;;;0.68;0.00;;;15.20;99.90;;;;;;5035425;28;20495;-78
2024/03/03 11:15:07;;;;;;;0.40;0.00;;;15.20;99.90;;;;;;5035799;28;20026;-78
2024/03/03 11:17:41;;;;;;;0.95;0.00;;;15.20;99.90;;;;;;5034482;28;20024;-78
2024/03/03 11:20:12;;;;;;;0.40;0.00;;;15.30;99.90;;;;;;5037204;28;20384;-78
2024/03/03 11:22:44;;;;;;;2.40;0.00;;;15.40;99.90;;;;;;5037552;28;20034;-79
2024/03/03 11:25:20;;;;;;;0.57;0.10;;;15.60;99.90;;;;;;5036688;28;20045;-78
2024/03/03 11:27:53;;;;;;;0.82;0.00;;;15.90;99.90;;;;;;5035487;28;20083;-79
2024/03/03 11:30:19;;;;;;;1.13;0.20;;;15.90;99.90;;;;;;5037079;28;20093;-79
2024/03/03 11:32:46;;;;;;;1.65;0.00;;;;;;;;;;5038010;28;20029;-79
2024/03/03 11:35:12;;;;;;;0.75;0.20;;;16.40;99.90;;;;;;5038711;28;20036;-79
2024/03/03 11:37:38;;;;;;;0.68;0.10;;;17.00;99.90;;;;;;5037540;28;20022;-79
2024/03/03 11:40:04;;;;;;;2.38;0.52;;;17.00;99.90;;;;;;5038138;28;20020;-79
2024/03/03 11:42:32;;;;;;;2.90;0.10;;;17.20;99.90;;;;;;5038270;28;20018;-79
2024/03/03 11:45:02;;;;;;;2.45;0.00;;;17.20;99.90;;;;;;5037718;28;20049;-79
2024/03/03 11:47:35;;;;;;;1.23;0.08;;;17.60;99.90;;;;;;5038529;28;20555;-79
2024/03/03 11:50:15;;;;;;;0.40;0.00;;;17.70;99.90;;;;;;5038003;28;20097;-79
2024/03/03 11:52:43;;;;;;;1.27;0.28;;;18.00;99.90;;;;;;5038488;28;20104;-79
2024/03/03 11:55:15;;;;;;;1.13;0.25;;;18.20;99.90;;;;;;5038134;28;20429;-79
2024/03/03 11:57:45;;;;;;;0.85;0.05;;;18.20;99.90;;;;;;5038863;28;20026;-79
2024/03/03 12:00:18;;;;;;;3.17;0.55;;;18.20;99.90;;;;;;5039102;28;20026;-79
2024/03/03 12:02:45;;;;;;;1.95;0.05;;;18.10;99.90;;;;;;5039448;28;20109;-79
2024/03/03 12:05:15;;;;;;;0.80;0.10;;;18.20;99.90;;;;;;5039657;28;20104;-79
2024/03/03 12:07:46;;;;;;;1.85;0.20;;;18.30;99.90;;;;;;5038094;28;20025;-79
2024/03/03 12:10:17;;;;;;;1.00;0.30;;;18.30;99.90;;;;;;5038634;28;20029;-79
2024/03/03 12:12:53;;;;;;;0.45;0.00;;;18.40;99.90;;;;;;5039437;28;20492;-79
2024/03/03 12:15:23;;;;;;;0.10;0.00;;;18.40;99.60;;;;;;5038870;28;20026;-79
2024/03/03 12:17:51;;;;;;;1.42;0.00;;;18.20;99.90;;;;;;5037655;28;20029;-79
2024/03/03 12:20:19;;;;;;;3.43;0.20;;;18.10;99.90;;;;;;5040713;28;20083;-79
2024/03/03 12:22:48;;;;;;;0.30;0.00;;;18.10;99.90;;;;;;5039414;28;20021;-79
2024/03/03 12:25:15;;;;;;;1.33;0.00;;;18.30;99.90;;;;;;5037790;28;20120;-79
2024/03/03 12:27:50;;;;;;;0.15;0.00;;;18.40;99.30;;;;;;5037975;28;20682;-79
2024/03/03 12:30:33;;;;;;;0.28;0.00;;;18.30;99.70;;;;;;5038604;28;20030;-79
2024/03/03 12:33:00;;;;;;;0.28;0.10;;;18.30;99.80;;;;;;5038450;28;20017;-78
2024/03/03 12:35:26;;;;;;;0.63;0.00;;;18.30;99.40;;;;;;5033261;28;20080;-78
2024/03/03 12:37:53;;;;;;;0.17;0.00;;;18.20;99.80;;;;;;5034375;28;20421;-78
2024/03/03 12:40:19;;;;;;;0.32;0.00;;;18.20;99.90;;;;;;5034236;28;20030;-78
2024/03/03 12:42:49;;;;;;;0.70;0.00;;;18.10;99.90;;;;;;5032987;28;20029;-78
2024/03/03 12:45:15;;;;;;;1.40;0.10;;;18.10;99.90;;;;;;5033855;28;20029;-78
2024/03/03 12:47:42;;;;;;;0.35;0.00;;;18.30;99.90;;;;;;5033248;28;20613;-78
2024/03/03 12:50:14;;;;;;;1.55;0.00;;;18.30;99.40;;;;;;5033407;28;20099;-78
2024/03/03 12:52:41;;;;;;;3.05;0.00;;;18.20;99.90;;;;;;5034040;28;20029;-78